Nearby METAR Reports

 

K1A5 - Macon/Franklin, North Carolina, USA
Distance from station: WSW 16mi, 25km
Updated: Wed, 16-Jan-2019 5:20pm EST
Clear
Clear
 Wind from N
Wind: N 8 mph , 13 km/h
Temperature: 48°F , 9°C
Wind Chill: 44°F , 7°C
Dew Point: 36°F , 2°C
Humidity: 62%
Barometer: 30.23 inHg , 1023.7 hPa
Clouds: Clear
Visibility: 10 miles , 16 km
2019/01/16 22:20 K1A5 162220Z AUTO 36007KT 10SM CLR 09/02 A3023 RMK AO2 T00900019
KAVL - Asheville, North Carolina, USA
Distance from station: ENE 36mi, 59km
Updated: Wed, 16-Jan-2019 4:54pm EST
Clear
Clear
 Wind from N
Wind: N 18 mph , 30 km/h, Gust: 26 mph , 43 km/h
Temperature: 39°F , 4°C
Wind Chill: 30°F , -1°C
Dew Point: 28°F , -2°C
Humidity: 65%
Barometer: 30.19 inHg , 1022.4 hPa
Clouds: Clear
Visibility: 10 miles , 16 km
2019/01/16 21:54 KAVL 162154Z 35016G23KT 10SM CLR 04/M02 A3019 RMK AO2 PK WND 34026/2142 SLP234 T00441017
 
KRHP - Andrews, North Carolina, USA
Distance from station: WSW 40mi, 64km
Updated: Wed, 16-Jan-2019 5:20pm EST
Clear
Clear
 Wind from SW
Wind: SW 3 mph , 6 km/h
Temperature: 46°F , 8°C
Dew Point: 34°F , 1°C
Humidity: 62%
Barometer: 30.21 inHg , 1023 hPa
Clouds: Clear
Visibility: 10 miles , 16 km
2019/01/16 22:20 KRHP 162220Z AUTO 23003KT 10SM CLR 08/01 A3021 RMK AO2 T00750009
KLQK - Pickens, South Carolina, USA
Distance from station: SE 42mi, 68km
Updated: Wed, 16-Jan-2019 5:35pm EST
Clear
Clear
 Wind from SSE
Wind: SSE 3 mph , 6 km/h
Temperature: 54°F , 12°C
Dew Point: 36°F , 2°C
Humidity: 51%
Barometer: 30.16 inHg , 1021.3 hPa
Clouds: Clear
Visibility: 10 miles , 16 km
2019/01/16 22:35 KLQK 162235Z AUTO 15003KT 10SM CLR 12/02 A3016 RMK AO2 T01190021
 
KCEU - Clemson, South Carolina, USA
Distance from station: SSE 46mi, 75km
Updated: Wed, 16-Jan-2019 4:54pm EST
Clear
Clear
 Wind from SSE
Wind: SSE 5 mph , 7 km/h
Temperature: 55°F , 13°C
Dew Point: 34°F , 1°C
Humidity: 44%
Barometer: 30.17 inHg , 1021.7 hPa
Clouds: Clear
Visibility: 10 miles , 16 km
2019/01/16 21:54 KCEU 162154Z AUTO 15004KT 10SM CLR 13/01 A3017 RMK AO2 SLP219 T01280011
KTOC - Toccoa, Georgia, USA
Distance from station: S 49mi, 79km
Updated: Wed, 16-Jan-2019 5:15pm EST
Clear
Clear
 Wind from W
Wind: W 6 mph , 9 km/h
Temperature: 57°F , 14°C
Dew Point: 28°F , -2°C
Humidity: 33%
Barometer: 30.17 inHg , 1021.7 hPa
Clouds: Clear
Visibility: 10 miles , 16 km
2019/01/16 22:15 KTOC 162215Z AUTO 27005KT 10SM CLR 14/M02 A3017 RMK AO2 T01371021

Warning: Unknown: write failed: No space left on device (28) in Unknown on line 0

Warning: Unknown: Failed to write session data (files). Please verify that the current setting of session.save_path is correct (/tmp) in Unknown on line 0